Terminal Aerodrome Forecast
Issued by NWS

Home | Current Version | Previous Version | Text Only | Print | Product List | Glossary On
Versions: 1 2 3 4 5 6 7 8 9 10 11 12 13 14 15 16 17 18
859
FTUS41 KBTV 072328
TAFMPV
TAF
KMPV 072328Z 0800/0824 19004KT P6SM SCT025
     FM080200 22005KT P6SM SCT060
     FM081400 22006KT P6SM VCSH BKN070
     FM082000 26007KT P6SM VCSH OVC045=

USA.gov is the U.S. government's official web portal to all federal, state and local government web resources and services.